Time;durP1;ratioP1;P1;durP2;ratioP2;P2;SDS_P1;SDS_P2;PMS_P1;PMS_P2;Temp;Humidity;BMP_temperature;BMP_pressure;BME280_temperature;BME280_humidity;BME280_pressure;Samples;Min_cycle;Max_cycle;Signal;HPM_P1;HPM_P2
2024/03/05 00:01:21;;;;;;;5.50;2.22;;;6.00;99.90;;;;;;4953160;28;20082;-83
2024/03/05 00:03:48;;;;;;;4.60;2.20;;;5.90;99.90;;;;;;4972538;28;20050;-85
2024/03/05 00:06:16;;;;;;;4.75;2.35;;;6.00;99.90;;;;;;4958001;28;20088;-87
2024/03/05 00:08:43;;;;;;;6.38;2.40;;;5.90;99.90;;;;;;4943393;28;20039;-87
2024/03/05 00:11:11;;;;;;;5.00;2.35;;;5.90;99.90;;;;;;4940259;28;20090;-83
2024/03/05 00:13:38;;;;;;;4.32;2.10;;;5.90;99.90;;;;;;4946749;28;20098;-87
2024/03/05 00:16:05;;;;;;;5.18;2.63;;;5.90;99.90;;;;;;4950382;28;20054;-84
2024/03/05 00:18:32;;;;;;;4.50;2.40;;;5.90;99.90;;;;;;4956702;28;20094;-84
2024/03/05 00:20:59;;;;;;;4.60;2.08;;;5.80;99.90;;;;;;4960786;28;20057;-84
2024/03/05 00:23:26;;;;;;;4.22;1.98;;;5.80;99.90;;;;;;4943079;28;20074;-84
2024/03/05 00:25:54;;;;;;;5.18;1.92;;;5.80;99.90;;;;;;4944294;28;20047;-87
2024/03/05 00:28:24;;;;;;;4.05;1.90;;;5.80;99.90;;;;;;4928282;28;20055;-83
2024/03/05 00:30:54;;;;;;;4.93;1.92;;;5.90;99.90;;;;;;4933449;29;20447;-85
2024/03/05 00:33:22;;;;;;;7.40;2.20;;;5.90;99.90;;;;;;4924898;28;20043;-83
2024/03/05 00:35:49;;;;;;;5.45;2.15;;;5.90;99.90;;;;;;4949528;29;20039;-83
2024/03/05 00:38:16;;;;;;;4.13;2.20;;;5.90;99.90;;;;;;4920668;28;20047;-83
2024/03/05 00:40:54;;;;;;;4.60;2.33;;;6.00;99.90;;;;;;4940018;28;20066;-86
2024/03/05 00:43:22;;;;;;;5.32;2.60;;;6.10;99.90;;;;;;4956998;28;20066;-82
2024/03/05 00:45:49;;;;;;;4.60;2.40;;;6.10;99.90;;;;;;4921844;28;20050;-83
2024/03/05 00:48:16;;;;;;;5.10;2.35;;;6.20;99.90;;;;;;4948378;28;20047;-83
2024/03/05 00:50:43;;;;;;;5.82;2.65;;;6.20;99.90;;;;;;4925727;28;20130;-85
2024/03/05 00:53:10;;;;;;;4.68;2.20;;;6.30;99.90;;;;;;4926529;28;20094;-86
2024/03/05 00:55:39;;;;;;;5.03;2.55;;;6.40;99.90;;;;;;4961168;28;20042;-86
2024/03/05 00:58:07;;;;;;;4.43;2.13;;;6.40;99.90;;;;;;4929957;28;20101;-87
2024/03/05 01:00:34;;;;;;;6.00;2.58;;;6.50;99.90;;;;;;4932014;28;20048;-84
2024/03/05 01:03:01;;;;;;;4.97;2.42;;;6.50;99.90;;;;;;4945543;28;20046;-85
2024/03/05 01:05:28;;;;;;;5.82;2.70;;;6.60;99.90;;;;;;4933154;28;20130;-86
2024/03/05 01:07:56;;;;;;;5.22;2.67;;;6.60;99.90;;;;;;4960819;28;20047;-83
2024/03/05 01:10:23;;;;;;;5.57;2.58;;;6.70;99.90;;;;;;4961556;28;20118;-83
2024/03/05 01:12:50;;;;;;;6.07;2.67;;;6.70;99.90;;;;;;4926442;29;20051;-86
2024/03/05 01:15:18;;;;;;;5.95;1.95;;;6.80;99.90;;;;;;4940261;28;20042;-86
2024/03/05 01:17:45;;;;;;;6.05;2.40;;;6.80;99.90;;;;;;4929287;28;20047;-86
2024/03/05 01:20:15;;;;;;;5.07;2.65;;;6.90;99.90;;;;;;4931961;29;20418;-86
2024/03/05 01:22:43;;;;;;;6.63;2.90;;;6.90;99.90;;;;;;4929833;28;20101;-88
2024/03/05 01:25:10;;;;;;;5.47;2.60;;;6.90;99.90;;;;;;4960787;28;20141;-84
2024/03/05 01:27:41;;;;;;;4.40;1.80;;;6.90;99.90;;;;;;4930647;28;20046;-87
2024/03/05 01:30:11;;;;;;;9.77;2.47;;;7.00;99.90;;;;;;4944944;28;20051;-86
2024/03/05 01:32:38;;;;;;;4.75;2.35;;;7.00;99.90;;;;;;4945104;28;20078;-83
2024/03/05 01:35:10;;;;;;;4.93;2.00;;;7.00;99.90;;;;;;4931986;28;20057;-83
2024/03/05 01:37:37;;;;;;;4.82;2.33;;;7.00;99.90;;;;;;4971149;28;20043;-86
2024/03/05 01:40:06;;;;;;;4.45;2.08;;;7.00;99.90;;;;;;4960553;28;20046;-86
2024/03/05 01:42:33;;;;;;;5.72;2.45;;;7.00;99.90;;;;;;4935206;29;20047;-86
2024/03/05 01:45:00;;;;;;;5.93;2.55;;;7.00;99.90;;;;;;4925354;28;20047;-82
2024/03/05 01:47:28;;;;;;;6.43;2.80;;;7.00;99.90;;;;;;4925513;28;20050;-87
2024/03/05 01:49:57;;;;;;;6.35;2.88;;;7.00;99.90;;;;;;4946909;28;20048;-86
2024/03/05 01:52:27;;;;;;;4.57;2.25;;;7.00;99.90;;;;;;4907748;29;20063;-86
2024/03/05 01:55:01;;;;;;;6.07;2.30;;;7.00;99.90;;;;;;4925311;29;20098;-83
2024/03/05 01:57:28;;;;;;;4.07;1.90;;;7.00;99.90;;;;;;4949357;28;20051;-82
2024/03/05 01:59:55;;;;;;;5.57;2.05;;;7.00;99.90;;;;;;4924897;29;20094;-83
2024/03/05 02:02:23;;;;;;;4.28;2.30;;;7.00;99.90;;;;;;4937823;29;20046;-87
2024/03/05 02:04:52;;;;;;;5.93;2.67;;;7.00;99.90;;;;;;4927171;28;21163;-84
2024/03/05 02:07:23;;;;;;;7.25;3.25;;;7.00;99.90;;;;;;4929388;29;20043;-86
2024/03/05 02:09:55;;;;;;;9.00;2.83;;;7.00;99.90;;;;;;4910162;29;20090;-84
2024/03/05 02:12:23;;;;;;;6.68;2.85;;;7.00;99.90;;;;;;4911799;28;20047;-84
2024/03/05 02:14:51;;;;;;;6.40;2.92;;;7.10;99.90;;;;;;4925055;29;20051;-83
2024/03/05 02:17:19;;;;;;;5.47;2.85;;;7.10;99.90;;;;;;4922038;28;20070;-83
2024/03/05 02:19:47;;;;;;;5.72;2.20;;;7.10;99.90;;;;;;4931534;29;20050;-84
2024/03/05 02:22:15;;;;;;;6.93;2.28;;;7.20;99.90;;;;;;4944432;29;20495;-83
2024/03/05 02:24:42;;;;;;;5.13;2.45;;;7.20;99.90;;;;;;4924758;29;20045;-84
2024/03/05 02:27:10;;;;;;;6.35;2.47;;;7.20;99.90;;;;;;4924707;29;20051;-87
2024/03/05 02:29:46;;;;;;;4.97;2.42;;;7.20;99.90;;;;;;4911365;29;20051;-87
2024/03/05 02:32:13;;;;;;;6.03;2.58;;;7.20;99.90;;;;;;4933910;29;20079;-87
2024/03/05 02:34:40;;;;;;;5.40;2.53;;;7.20;99.90;;;;;;4933467;29;20047;-82
2024/03/05 02:37:11;;;;;;;6.88;3.00;;;7.20;99.90;;;;;;4891025;29;20074;-82
2024/03/05 02:39:38;;;;;;;6.88;2.97;;;7.30;99.90;;;;;;4931892;29;20055;-83
2024/03/05 02:42:05;;;;;;;6.43;3.30;;;7.30;99.90;;;;;;4909106;28;20050;-83
2024/03/05 02:44:32;;;;;;;7.28;3.53;;;7.20;99.90;;;;;;4933633;29;20142;-82
2024/03/05 02:47:00;;;;;;;5.72;3.17;;;7.20;99.90;;;;;;4940330;28;20057;-82
2024/03/05 02:49:27;;;;;;;8.30;3.85;;;7.20;99.90;;;;;;4940249;29;20469;-86
2024/03/05 02:51:54;;;;;;;7.03;3.25;;;7.30;99.90;;;;;;4938094;28;20145;-86
2024/03/05 02:54:24;;;;;;;6.15;3.08;;;7.30;99.90;;;;;;4959096;28;20189;-86
2024/03/05 02:56:52;;;;;;;5.10;2.45;;;7.30;99.90;;;;;;4943207;28;20423;-86
2024/03/05 02:59:19;;;;;;;5.78;2.65;;;7.30;99.90;;;;;;4927418;28;20097;-82
2024/03/05 03:01:50;;;;;;;5.60;2.78;;;7.30;99.90;;;;;;4942978;28;20411;-85
2024/03/05 03:04:20;;;;;;;5.68;2.55;;;7.40;99.90;;;;;;4943531;28;20070;-82
2024/03/05 03:06:49;;;;;;;8.30;3.92;;;7.30;99.90;;;;;;4943629;28;20129;-87
2024/03/05 03:09:17;;;;;;;6.53;3.05;;;7.30;99.90;;;;;;4926040;29;20050;-83
2024/03/05 03:11:47;;;;;;;8.10;2.92;;;7.30;99.90;;;;;;4939907;29;20384;-87
2024/03/05 03:14:15;;;;;;;7.10;3.00;;;7.40;99.90;;;;;;4978318;28;20455;-81
2024/03/05 03:16:43;;;;;;;7.13;3.42;;;7.40;99.90;;;;;;4958920;28;20043;-85
2024/03/05 03:19:11;;;;;;;6.25;3.25;;;7.40;99.90;;;;;;4942906;28;20078;-85
2024/03/05 03:21:38;;;;;;;6.53;2.90;;;7.40;99.90;;;;;;4966749;28;20042;-86
2024/03/05 03:24:05;;;;;;;6.22;3.20;;;7.40;99.90;;;;;;4927166;28;20062;-83
2024/03/05 03:26:35;;;;;;;5.57;2.92;;;7.40;99.90;;;;;;4913165;28;20066;-88
2024/03/05 03:29:02;;;;;;;6.32;2.92;;;7.40;99.90;;;;;;4939401;29;20150;-84
2024/03/05 03:31:31;;;;;;;6.10;3.28;;;7.40;99.90;;;;;;4954373;28;20050;-87
2024/03/05 03:33:58;;;;;;;6.80;3.55;;;7.50;99.90;;;;;;4935965;29;20150;-83
2024/03/05 03:36:27;;;;;;;7.63;3.40;;;7.50;99.90;;;;;;4954840;28;20043;-87
2024/03/05 03:38:54;;;;;;;5.82;3.05;;;7.50;99.90;;;;;;4953341;28;20138;-85
2024/03/05 03:41:24;;;;;;;7.43;2.92;;;7.50;99.90;;;;;;4955393;28;20051;-86
2024/03/05 03:43:54;;;;;;;5.35;2.72;;;7.50;99.90;;;;;;4940535;28;20054;-85
2024/03/05 03:46:24;;;;;;;7.47;3.80;;;7.50;99.90;;;;;;4947687;29;20047;-85
2024/03/05 03:48:54;;;;;;;7.90;3.10;;;7.50;99.90;;;;;;4929479;28;20085;-82
2024/03/05 03:51:21;;;;;;;6.45;2.97;;;7.60;99.90;;;;;;4961684;28;20473;-83
2024/03/05 03:53:48;;;;;;;7.35;3.42;;;7.50;99.90;;;;;;4914994;28;20061;-83
2024/03/05 03:56:17;;;;;;;7.35;3.00;;;7.50;99.90;;;;;;4937621;28;20482;-82
2024/03/05 03:58:44;;;;;;;5.90;3.20;;;7.60;99.90;;;;;;4929694;28;20488;-82
2024/03/05 04:01:11;;;;;;;6.28;2.97;;;7.50;99.90;;;;;;4970810;28;20050;-87
2024/03/05 04:03:39;;;;;;;6.93;3.70;;;7.50;99.90;;;;;;4965452;28;20038;-83
2024/03/05 04:06:06;;;;;;;8.15;3.65;;;7.50;99.90;;;;;;4952724;29;20499;-87
2024/03/05 04:08:33;;;;;;;6.65;3.63;;;7.50;99.90;;;;;;4937490;28;20478;-84
2024/03/05 04:11:01;;;;;;;7.70;3.90;;;7.50;99.90;;;;;;4925617;28;20558;-81
2024/03/05 04:13:28;;;;;;;9.07;4.13;;;7.50;99.90;;;;;;4932401;29;20051;-82
2024/03/05 04:15:56;;;;;;;7.35;4.00;;;7.50;99.90;;;;;;4940528;28;20396;-83
2024/03/05 04:18:23;;;;;;;9.13;4.00;;;7.50;99.90;;;;;;4961359;28;20486;-84
2024/03/05 04:20:50;;;;;;;7.80;3.45;;;7.50;99.90;;;;;;4939735;28;20051;-83
2024/03/05 04:23:24;;;;;;;7.57;3.50;;;7.50;99.90;;;;;;4937987;28;20046;-86
2024/03/05 04:25:57;;;;;;;8.38;4.45;;;7.50;99.90;;;;;;4928362;28;20150;-84
2024/03/05 04:28:25;;;;;;;9.30;3.85;;;7.50;99.90;;;;;;4943106;28;20047;-87
2024/03/05 04:30:52;;;;;;;7.88;3.90;;;7.50;99.90;;;;;;4941631;28;20054;-85
2024/03/05 04:33:22;;;;;;;10.25;4.53;;;7.50;99.90;;;;;;4954173;28;20058;-83
2024/03/05 04:35:49;;;;;;;15.35;6.88;;;7.60;99.90;;;;;;4969119;28;20051;-84
2024/03/05 04:38:16;;;;;;;9.48;4.78;;;7.50;99.90;;;;;;4957276;28;20054;-87
2024/03/05 04:40:43;;;;;;;9.63;4.78;;;7.50;99.90;;;;;;4936118;28;20488;-84
2024/03/05 04:43:10;;;;;;;10.55;5.22;;;7.50;99.90;;;;;;4938932;28;20049;-83
2024/03/05 04:45:38;;;;;;;10.35;4.85;;;7.60;99.90;;;;;;4941247;28;20109;-87
2024/03/05 04:48:05;;;;;;;12.55;4.90;;;7.50;99.90;;;;;;4907287;29;20043;-82
2024/03/05 04:50:34;;;;;;;11.70;5.53;;;7.60;99.90;;;;;;4910720;28;20050;-83
2024/03/05 04:53:01;;;;;;;14.60;6.22;;;7.50;99.90;;;;;;4938236;29;20043;-85
2024/03/05 04:55:28;;;;;;;11.45;6.35;;;7.60;99.90;;;;;;4922236;28;20051;-85
2024/03/05 04:57:55;;;;;;;11.15;5.68;;;7.50;99.90;;;;;;4956803;28;20054;-83
2024/03/05 05:00:23;;;;;;;12.75;6.40;;;7.50;99.90;;;;;;4970730;28;20137;-85
2024/03/05 05:02:54;;;;;;;10.68;6.00;;;7.50;99.90;;;;;;4959607;28;20137;-84
2024/03/05 05:05:24;;;;;;;12.63;6.00;;;7.50;99.90;;;;;;4959864;28;20078;-82
2024/03/05 05:07:56;;;;;;;15.63;6.32;;;7.60;99.90;;;;;;4954793;28;20055;-86
2024/03/05 05:10:29;;;;;;;8.88;4.28;;;7.50;99.90;;;;;;4939125;29;20047;-83
2024/03/05 05:12:56;;;;;;;10.85;5.40;;;7.50;99.90;;;;;;4948520;28;20051;-87
2024/03/05 05:15:26;;;;;;;11.13;5.30;;;7.60;99.90;;;;;;4961815;28;20038;-87
2024/03/05 05:17:58;;;;;;;9.93;5.00;;;7.60;99.90;;;;;;4933085;28;20046;-83
2024/03/05 05:20:27;;;;;;;12.82;6.15;;;7.60;99.90;;;;;;4941259;28;20097;-87
2024/03/05 05:22:54;;;;;;;12.60;6.07;;;7.60;99.90;;;;;;4944011;29;20043;-83
2024/03/05 05:25:22;;;;;;;11.07;5.43;;;7.60;99.90;;;;;;4929234;28;20044;-87
2024/03/05 05:27:53;;;;;;;10.77;5.57;;;7.60;99.90;;;;;;4932257;28;20415;-88
2024/03/05 05:30:23;;;;;;;10.80;4.97;;;7.60;99.90;;;;;;4950783;28;20053;-83
2024/03/05 05:32:51;;;;;;;10.90;4.70;;;7.60;99.90;;;;;;4963405;28;20047;-87
2024/03/05 05:35:21;;;;;;;10.68;5.80;;;7.60;99.90;;;;;;4937795;28;20057;-83
2024/03/05 05:37:50;;;;;;;13.52;6.03;;;7.60;99.90;;;;;;4949376;28;20047;-86
2024/03/05 05:40:18;;;;;;;14.82;6.45;;;7.60;99.90;;;;;;4971035;28;20050;-87
2024/03/05 05:42:49;;;;;;;11.80;5.38;;;7.60;99.90;;;;;;4944939;28;20102;-87
2024/03/05 05:45:16;;;;;;;15.52;6.07;;;7.60;99.90;;;;;;4946202;29;20078;-83
2024/03/05 05:47:51;;;;;;;11.02;4.57;;;7.60;99.90;;;;;;4949125;29;20047;-85
2024/03/05 05:50:21;;;;;;;9.50;4.65;;;7.60;99.90;;;;;;4938557;28;20050;-83
2024/03/05 05:52:54;;;;;;;10.00;4.38;;;7.60;99.90;;;;;;4941089;29;20134;-83
2024/03/05 05:55:24;;;;;;;10.35;4.57;;;7.60;99.90;;;;;;4911226;29;20055;-86
2024/03/05 05:57:54;;;;;;;10.10;3.97;;;7.60;99.90;;;;;;4933487;28;20057;-86
2024/03/05 06:00:32;;;;;;;10.25;4.32;;;7.60;99.90;;;;;;4930581;29;20051;-84
2024/03/05 06:03:03;;;;;;;12.23;5.20;;;7.60;99.90;;;;;;4949056;29;20048;-84
2024/03/05 06:05:31;;;;;;;11.18;5.35;;;7.60;99.90;;;;;;4923046;29;20047;-85
2024/03/05 06:08:00;;;;;;;14.38;6.22;;;7.60;99.90;;;;;;4957021;29;20047;-86
2024/03/05 06:10:30;;;;;;;13.03;6.30;;;7.60;99.90;;;;;;4941536;29;20039;-86
2024/03/05 06:12:58;;;;;;;14.73;6.53;;;7.60;99.90;;;;;;4937492;29;20056;-83
2024/03/05 06:15:27;;;;;;;13.63;6.18;;;7.60;99.90;;;;;;4933089;29;20463;-88
2024/03/05 06:17:59;;;;;;;13.38;6.05;;;7.60;99.90;;;;;;4909654;29;20051;-83
2024/03/05 06:20:27;;;;;;;12.00;6.15;;;7.60;99.90;;;;;;4945453;29;20058;-88
2024/03/05 06:22:56;;;;;;;14.60;6.13;;;7.60;99.90;;;;;;4923395;29;20142;-88
2024/03/05 06:25:24;;;;;;;12.68;5.32;;;7.60;99.90;;;;;;4925177;29;20052;-84
2024/03/05 06:27:52;;;;;;;9.75;5.32;;;7.60;99.90;;;;;;4940371;29;20138;-88
2024/03/05 06:30:19;;;;;;;12.70;5.95;;;7.60;99.90;;;;;;4924543;29;20054;-87
2024/03/05 06:32:48;;;;;;;11.25;4.55;;;7.60;99.90;;;;;;4945513;28;20056;-87
2024/03/05 06:35:17;;;;;;;11.18;5.30;;;7.60;99.90;;;;;;4906818;29;20065;-83
2024/03/05 06:37:49;;;;;;;10.68;4.30;;;7.60;99.90;;;;;;4940626;29;20051;-86
2024/03/05 06:40:20;;;;;;;9.18;4.28;;;7.70;99.90;;;;;;4942914;29;20077;-86
2024/03/05 06:43:03;;;;;;;9.52;4.80;;;7.70;99.90;;;;;;4915854;29;20091;-84
2024/03/05 06:45:33;;;;;;;8.27;3.75;;;7.70;99.90;;;;;;4895124;29;20132;-86
2024/03/05 06:48:07;;;;;;;9.65;3.72;;;7.70;99.90;;;;;;4931870;28;20089;-86
2024/03/05 06:50:38;;;;;;;10.60;5.05;;;7.70;99.90;;;;;;4957598;28;20046;-84
2024/03/05 06:58:41;;;;;;;12.02;4.80;;;7.70;99.90;;;;;;4948422;28;20042;-87
2024/03/05 07:01:09;;;;;;;9.27;4.75;;;7.70;99.90;;;;;;4936777;29;20608;-86
2024/03/05 07:03:38;;;;;;;13.73;6.05;;;7.70;99.90;;;;;;4914797;29;20491;-83
2024/03/05 07:06:18;;;;;;;13.02;5.28;;;7.80;99.90;;;;;;4926120;29;20074;-86
2024/03/05 07:08:51;;;;;;;11.77;4.22;;;7.80;99.90;;;;;;4949592;29;20048;-83
2024/03/05 07:11:18;;;;;;;;;;;7.80;99.90;;;;;;4933785;28;20040;-85
2024/03/05 07:13:48;;;;;;;11.85;4.47;;;7.80;99.90;;;;;;4946892;28;19930;-82
2024/03/05 07:16:17;;;;;;;9.55;4.60;;;7.80;99.90;;;;;;4927112;29;20055;-82
2024/03/05 07:18:47;;;;;;;13.27;5.85;;;7.80;99.90;;;;;;4925928;28;20043;-83
2024/03/05 07:21:17;;;;;;;13.32;5.40;;;7.80;99.90;;;;;;4958703;28;20482;-82
2024/03/05 07:23:54;;;;;;;12.13;5.68;;;7.80;99.90;;;;;;4932870;29;20058;-82
2024/03/05 07:26:23;;;;;;;12.80;5.47;;;7.80;99.90;;;;;;4908943;29;20048;-87
2024/03/05 07:28:50;;;;;;;13.00;5.50;;;7.80;99.90;;;;;;4927207;28;20047;-87
2024/03/05 07:31:18;;;;;;;11.38;5.05;;;7.90;99.90;;;;;;4932988;28;20586;-83
2024/03/05 07:33:48;;;;;;;11.88;5.35;;;7.90;99.90;;;;;;4935527;29;20082;-82
2024/03/05 07:36:22;;;;;;;12.07;4.68;;;7.90;99.90;;;;;;4949951;28;20051;-87
2024/03/05 07:38:52;;;;;;;11.18;4.53;;;8.00;99.90;;;;;;4943404;28;20451;-88
2024/03/05 07:41:20;;;;;;;9.60;4.60;;;8.00;99.90;;;;;;4931412;29;20496;-84
2024/03/05 07:44:00;;;;;;;9.73;4.45;;;8.00;99.90;;;;;;4924790;29;20492;-82
2024/03/05 07:46:29;;;;;;;12.75;5.10;;;8.00;99.90;;;;;;4920282;29;20039;-88
2024/03/05 07:48:57;;;;;;;9.60;3.90;;;8.10;99.90;;;;;;4908785;29;20055;-85
2024/03/05 07:51:24;;;;;;;9.30;4.47;;;8.20;99.90;;;;;;4897509;29;20048;-84
2024/03/05 07:53:58;;;;;;;9.00;4.57;;;8.20;99.90;;;;;;4940571;29;20142;-84
2024/03/05 07:56:26;;;;;;;9.90;4.72;;;8.30;99.90;;;;;;4928574;28;20487;-82
2024/03/05 07:58:55;;;;;;;11.45;4.68;;;8.30;99.90;;;;;;4911205;29;20122;-86
2024/03/05 08:01:24;;;;;;;11.40;4.78;;;8.30;99.90;;;;;;4922876;29;20063;-83
2024/03/05 08:03:53;;;;;;;13.20;6.07;;;8.40;99.90;;;;;;4904060;29;20074;-85
2024/03/05 08:06:20;;;;;;;11.85;5.53;;;8.40;99.90;;;;;;4904353;29;20121;-83
2024/03/05 08:08:47;;;;;;;10.88;4.95;;;8.50;99.90;;;;;;4932407;29;20036;-83
2024/03/05 08:11:14;;;;;;;13.45;5.53;;;8.50;99.90;;;;;;4893733;29;20051;-80
2024/03/05 08:13:42;;;;;;;15.93;6.47;;;8.50;99.90;;;;;;4938676;29;20053;-86
2024/03/05 08:16:10;;;;;;;14.27;6.20;;;8.60;99.90;;;;;;4890394;29;20085;-85
2024/03/05 08:18:37;;;;;;;11.70;4.97;;;8.60;99.90;;;;;;4929610;29;20204;-84
2024/03/05 08:21:04;;;;;;;15.70;7.78;;;8.70;99.90;;;;;;4908299;29;20051;-80
2024/03/05 08:23:31;;;;;;;21.20;7.15;;;8.70;99.90;;;;;;4925164;29;20102;-82
2024/03/05 08:25:58;;;;;;;15.77;7.05;;;8.70;99.90;;;;;;4909388;29;20815;-84
2024/03/05 08:28:26;;;;;;;16.77;7.45;;;8.80;99.90;;;;;;4939524;28;20139;-87
2024/03/05 08:30:53;;;;;;;17.38;7.78;;;8.80;99.90;;;;;;4923868;29;20047;-83
2024/03/05 08:33:23;;;;;;;17.77;7.30;;;8.80;99.90;;;;;;4891469;29;20150;-82
2024/03/05 08:35:52;;;;;;;15.45;6.63;;;8.80;99.90;;;;;;4927054;28;20113;-84
2024/03/05 08:38:19;;;;;;;16.65;6.88;;;8.90;99.90;;;;;;4927720;29;20039;-83
2024/03/05 08:40:47;;;;;;;16.40;7.70;;;8.90;99.90;;;;;;4929006;28;20058;-81
2024/03/05 08:43:14;;;;;;;15.40;6.90;;;9.00;99.90;;;;;;4932901;28;20082;-82
2024/03/05 08:45:42;;;;;;;15.88;7.07;;;9.00;99.90;;;;;;4966877;28;20058;-83
2024/03/05 08:48:09;;;;;;;15.57;7.13;;;9.00;99.90;;;;;;4953309;28;20046;-85
2024/03/05 08:50:36;;;;;;;15.48;6.72;;;9.00;99.90;;;;;;4943123;28;20050;-83
2024/03/05 08:53:04;;;;;;;17.70;8.07;;;9.10;99.90;;;;;;4957607;28;20042;-86
2024/03/05 08:55:32;;;;;;;15.13;6.90;;;9.10;99.90;;;;;;4941368;28;20047;-81
2024/03/05 08:58:00;;;;;;;20.75;8.30;;;9.20;99.90;;;;;;4938053;29;20043;-82
2024/03/05 09:00:29;;;;;;;13.48;6.03;;;9.20;99.90;;;;;;4955317;28;20043;-87
2024/03/05 09:03:10;;;;;;;15.27;7.15;;;9.20;99.90;;;;;;4955432;28;20043;-88
2024/03/05 09:05:38;;;;;;;15.95;7.50;;;9.20;99.90;;;;;;4959257;28;20051;-81
2024/03/05 09:08:10;;;;;;;17.35;7.13;;;9.20;99.90;;;;;;4974608;28;20039;-84
2024/03/05 09:10:38;;;;;;;14.88;6.38;;;9.30;99.90;;;;;;4938347;28;20054;-82
2024/03/05 09:13:05;;;;;;;16.33;6.53;;;9.20;99.90;;;;;;4926335;28;20111;-83
2024/03/05 09:15:33;;;;;;;16.67;7.75;;;9.30;99.90;;;;;;4933291;28;20047;-89
2024/03/05 09:18:01;;;;;;;16.45;6.93;;;9.40;99.90;;;;;;4945333;28;20053;-83
2024/03/05 09:20:29;;;;;;;16.08;6.85;;;9.40;99.90;;;;;;4929624;28;20051;-82
2024/03/05 09:22:56;;;;;;;19.55;7.90;;;9.50;99.90;;;;;;4948713;28;20422;-83
2024/03/05 09:25:24;;;;;;;19.45;8.88;;;9.50;99.90;;;;;;4937855;28;20043;-86
2024/03/05 09:27:53;;;;;;;18.35;8.80;;;9.50;99.90;;;;;;4929082;29;20134;-83
2024/03/05 09:30:20;;;;;;;16.75;7.82;;;9.50;99.90;;;;;;4926547;29;20064;-80
2024/03/05 09:32:47;;;;;;;19.73;8.73;;;9.50;99.90;;;;;;4925873;29;20058;-87
2024/03/05 09:35:15;;;;;;;26.77;11.35;;;9.60;99.90;;;;;;4945032;28;20050;-83
2024/03/05 09:37:45;;;;;;;23.83;10.43;;;9.60;99.90;;;;;;4954381;28;20085;-86
2024/03/05 09:40:16;;;;;;;21.48;9.30;;;9.60;99.90;;;;;;4944709;28;20054;-89
2024/03/05 09:42:46;;;;;;;18.10;8.73;;;9.70;99.90;;;;;;4960679;28;20502;-89
2024/03/05 09:45:15;;;;;;;19.50;9.15;;;9.70;99.90;;;;;;4961012;28;20043;-82
2024/03/05 09:47:44;;;;;;;18.55;8.20;;;9.80;99.90;;;;;;4960834;28;20491;-82
2024/03/05 09:50:12;;;;;;;17.02;7.55;;;9.80;99.90;;;;;;4944554;28;20407;-89
2024/03/05 09:52:46;;;;;;;18.50;7.50;;;9.90;99.90;;;;;;4954509;28;20130;-81
2024/03/05 09:55:17;;;;;;;19.20;8.13;;;9.90;99.90;;;;;;4960567;28;20138;-89
2024/03/05 09:57:47;;;;;;;18.58;8.48;;;10.00;99.90;;;;;;4945048;28;20054;-88
2024/03/05 10:00:17;;;;;;;17.98;9.00;;;10.00;99.90;;;;;;4977060;28;20149;-81
2024/03/05 10:02:54;;;;;;;16.88;7.80;;;10.10;99.90;;;;;;4929733;28;20047;-88
2024/03/05 10:05:25;;;;;;;19.55;9.23;;;10.10;99.90;;;;;;4918990;29;20124;-85
2024/03/05 10:07:52;;;;;;;17.75;8.38;;;10.20;99.90;;;;;;4925005;29;20078;-84
2024/03/05 10:10:25;;;;;;;17.60;7.70;;;10.20;99.90;;;;;;4908340;28;20043;-87
2024/03/05 10:12:52;;;;;;;16.30;8.60;;;10.20;99.90;;;;;;4928874;28;20043;-83
2024/03/05 10:15:24;;;;;;;15.15;7.00;;;10.30;99.90;;;;;;4960068;28;20059;-89
2024/03/05 10:17:54;;;;;;;14.05;6.90;;;10.30;99.90;;;;;;4959590;28;20051;-86
2024/03/05 10:20:31;;;;;;;13.45;6.57;;;10.40;99.90;;;;;;4944221;28;20051;-87
2024/03/05 10:23:01;;;;;;;17.15;8.02;;;10.40;99.90;;;;;;4929698;28;20154;-81
2024/03/05 10:25:32;;;;;;;17.77;8.90;;;10.40;99.90;;;;;;4959328;28;20054;-88
2024/03/05 10:28:02;;;;;;;23.33;11.68;;;10.40;99.90;;;;;;4959997;28;20038;-82
2024/03/05 10:30:33;;;;;;;20.55;10.73;;;10.40;99.90;;;;;;4943481;28;20411;-82
2024/03/05 10:33:09;;;;;;;28.52;14.07;;;10.40;99.90;;;;;;4947815;28;20042;-82
2024/03/05 10:35:37;;;;;;;22.50;12.18;;;10.30;99.90;;;;;;4950700;28;20171;-81
2024/03/05 10:38:14;;;;;;;28.77;13.48;;;10.30;99.90;;;;;;4950989;29;20055;-86
2024/03/05 10:40:43;;;;;;;28.45;14.55;;;10.30;99.90;;;;;;4937951;28;20066;-86
2024/03/05 10:43:18;;;;;;;27.60;14.40;;;10.30;99.90;;;;;;4953348;28;20059;-85
2024/03/05 10:45:47;;;;;;;25.42;12.82;;;10.30;99.90;;;;;;4955492;28;20148;-84
2024/03/05 10:48:15;;;;;;;24.58;12.98;;;10.20;99.90;;;;;;4942657;28;20053;-86
2024/03/05 10:50:47;;;;;;;25.10;11.95;;;10.30;99.90;;;;;;4945181;28;20046;-81
2024/03/05 10:53:16;;;;;;;25.98;13.95;;;10.20;99.90;;;;;;4965153;28;20109;-81
2024/03/05 10:55:44;;;;;;;25.58;14.23;;;10.10;99.90;;;;;;4912946;28;20420;-81
2024/03/05 11:00:46;;;;;;;29.65;16.10;;;10.10;99.90;;;;;;4961776;28;20060;-85
2024/03/05 11:03:16;;;;;;;31.58;16.23;;;10.10;99.90;;;;;;4927295;28;20074;-84
2024/03/05 11:05:52;;;;;;;28.80;14.75;;;10.00;99.90;;;;;;4963492;28;20503;-86
2024/03/05 11:08:24;;;;;;;27.48;15.85;;;10.00;99.90;;;;;;4953105;28;20074;-82
2024/03/05 11:10:52;;;;;;;;;;;10.00;99.90;;;;;;4945722;28;20058;-83
2024/03/05 11:13:22;;;;;;;27.17;15.13;;;9.90;99.90;;;;;;4964394;28;20302;-85
2024/03/05 11:15:50;;;;;;;32.88;16.17;;;9.90;99.90;;;;;;4929089;28;20061;-83
2024/03/05 11:18:28;;;;;;;26.52;14.07;;;9.90;99.90;;;;;;4973130;28;20110;-86
2024/03/05 11:20:56;;;;;;;25.42;13.85;;;9.90;99.90;;;;;;4962090;28;20053;-89
2024/03/05 11:23:29;;;;;;;23.75;11.57;;;9.80;99.90;;;;;;4959902;28;20049;-87
2024/03/05 11:26:04;;;;;;;19.60;10.43;;;9.90;99.90;;;;;;4926887;28;20495;-88
2024/03/05 11:28:33;;;;;;;19.23;11.20;;;9.90;99.90;;;;;;4924473;28;20054;-84
2024/03/05 11:31:35;;;;;;;;;;;;;;;;;;;;;
2024/03/05 11:34:31;;;;;;;27.88;14.70;;;9.90;99.90;;;;;;4930978;28;20137;-90
2024/03/05 11:37:09;;;;;;;29.92;14.43;;;9.80;99.90;;;;;;4959582;28;20065;-84
2024/03/05 11:39:41;;;;;;;26.73;14.48;;;9.70;99.90;;;;;;4939701;29;20570;-88
2024/03/05 11:42:18;;;;;;;22.83;12.20;;;9.70;99.90;;;;;;4921240;28;20059;-87
2024/03/05 11:44:49;;;;;;;20.70;11.90;;;9.70;99.90;;;;;;4955056;28;20101;-86
2024/03/05 11:47:23;;;;;;;19.08;9.60;;;9.80;99.90;;;;;;4946451;28;20043;-87
2024/03/05 11:49:52;;;;;;;17.83;10.43;;;9.70;99.90;;;;;;4940584;28;20043;-83
2024/03/05 11:52:20;;;;;;;17.92;10.57;;;9.60;99.90;;;;;;4922397;29;20043;-84
2024/03/05 11:55:05;;;;;;;20.83;11.05;;;9.60;99.90;;;;;;4944429;29;20106;-86
2024/03/05 11:57:35;;;;;;;19.98;10.63;;;9.50;99.90;;;;;;4928393;28;20484;-84
2024/03/05 12:00:14;;;;;;;18.50;9.60;;;9.40;99.90;;;;;;4913160;29;20043;-85
2024/03/05 12:02:42;;;;;;;19.45;11.02;;;9.30;99.90;;;;;;4923037;29;20047;-80
2024/03/05 12:05:13;;;;;;;15.90;9.15;;;9.10;99.90;;;;;;4899673;29;20138;-80
2024/03/05 12:07:40;;;;;;;17.40;8.90;;;9.00;99.90;;;;;;4923797;29;20404;-82
2024/03/05 12:10:10;;;;;;;15.27;7.93;;;9.00;99.90;;;;;;4931622;29;20059;-88
2024/03/05 12:12:37;;;;;;;16.10;7.72;;;8.90;99.90;;;;;;4944384;28;20051;-88
2024/03/05 12:15:05;;;;;;;14.45;7.70;;;8.90;99.90;;;;;;4907628;29;20306;-83
2024/03/05 12:17:33;;;;;;;12.30;6.55;;;8.90;99.90;;;;;;4905908;29;20044;-87
2024/03/05 12:20:07;;;;;;;9.82;5.57;;;8.90;99.90;;;;;;4938573;29;20047;-85
2024/03/05 12:22:38;;;;;;;12.77;7.47;;;8.90;99.90;;;;;;4924365;29;20078;-87
2024/03/05 12:25:07;;;;;;;14.63;8.27;;;8.90;99.90;;;;;;4922830;29;20051;-89
2024/03/05 12:27:37;;;;;;;15.48;8.52;;;8.80;99.90;;;;;;4919162;28;20107;-89
2024/03/05 12:30:06;;;;;;;13.95;7.32;;;8.70;99.90;;;;;;4923053;29;20040;-81
2024/03/05 12:32:36;;;;;;;12.18;6.90;;;8.70;99.90;;;;;;4929876;28;20098;-82
2024/03/05 12:35:07;;;;;;;10.90;6.65;;;8.70;99.90;;;;;;4956913;28;20061;-81
2024/03/05 12:37:35;;;;;;;9.05;6.38;;;8.70;99.90;;;;;;4935747;28;20403;-88
2024/03/05 12:40:07;;;;;;;10.13;5.47;;;8.70;99.90;;;;;;4925584;28;20053;-81
2024/03/05 12:42:37;;;;;;;9.50;4.82;;;8.70;99.90;;;;;;4963406;28;20082;-82
2024/03/05 12:45:06;;;;;;;10.73;6.07;;;8.70;99.90;;;;;;4916091;28;20078;-83
2024/03/05 12:47:37;;;;;;;8.02;4.43;;;8.70;99.90;;;;;;4973461;28;20928;-83
2024/03/05 12:50:07;;;;;;;11.85;6.20;;;8.80;99.90;;;;;;4946558;28;20463;-85
2024/03/05 12:52:38;;;;;;;12.90;7.40;;;8.80;99.90;;;;;;4947230;28;20054;-82
2024/03/05 12:55:09;;;;;;;16.13;9.23;;;8.70;99.90;;;;;;4948612;28;20095;-89
2024/03/05 12:57:37;;;;;;;15.40;9.77;;;8.70;99.90;;;;;;4946690;28;20046;-85
2024/03/05 13:00:10;;;;;;;14.80;9.07;;;8.60;99.90;;;;;;4916802;28;20440;-87
2024/03/05 13:02:41;;;;;;;16.40;9.80;;;8.60;99.90;;;;;;4976809;28;20054;-87
2024/03/05 13:05:09;;;;;;;17.98;10.57;;;8.60;99.90;;;;;;4949149;28;20558;-86
2024/03/05 13:07:38;;;;;;;24.20;11.93;;;8.50;99.90;;;;;;4946751;28;20054;-89
2024/03/05 13:10:15;;;;;;;21.83;11.85;;;8.50;99.90;;;;;;4929280;29;20043;-91